Time;durP1;ratioP1;P1;durP2;ratioP2;P2;SDS_P1;SDS_P2;PMS_P1;PMS_P2;Temp;Humidity;BMP_temperature;BMP_pressure;BME280_temperature;BME280_humidity;BME280_pressure;Samples;Min_cycle;Max_cycle;Signal;HPM_P1;HPM_P2
2023/06/23 00:00:09;;;;;;;8.38;2.42;;;;;;;15.94;70.31;100526.59;5045679;28;20378;-62
2023/06/23 00:02:35;;;;;;;12.75;3.10;;;;;;;15.92;70.25;100521.41;5045449;28;20085;-63
2023/06/23 00:05:01;;;;;;;11.52;3.08;;;;;;;15.92;70.32;100526.66;5045398;28;20041;-61
2023/06/23 00:07:26;;;;;;;8.20;2.90;;;;;;;15.91;69.50;100526.69;5044544;28;20033;-61
2023/06/23 00:09:52;;;;;;;8.90;3.42;;;;;;;15.89;69.62;100521.50;5045238;28;20022;-62
2023/06/23 00:12:18;;;;;;;5.07;2.67;;;;;;;15.90;69.72;100527.56;5045358;28;20100;-63
2023/06/23 00:14:43;;;;;;;6.13;3.35;;;;;;;15.89;69.75;100513.63;5045121;28;20060;-62
2023/06/23 00:17:09;;;;;;;6.30;2.70;;;;;;;15.90;69.71;100519.72;5045171;28;20034;-62
2023/06/23 00:19:34;;;;;;;10.15;3.10;;;;;;;15.91;69.59;100524.06;5045153;28;20419;-62
2023/06/23 00:22:00;;;;;;;10.02;2.47;;;;;;;15.93;70.21;100517.00;5045051;28;20470;-63
2023/06/23 00:24:27;;;;;;;4.38;2.72;;;;;;;15.92;69.94;100520.53;5045029;28;20104;-62
2023/06/23 00:26:52;;;;;;;15.57;3.55;;;;;;;15.93;70.07;100514.38;5045272;28;20049;-62
2023/06/23 00:29:17;;;;;;;14.05;3.67;;;;;;;15.93;70.30;100519.63;5045342;28;20354;-63
2023/06/23 00:31:43;;;;;;;5.95;2.33;;;;;;;15.97;70.27;100516.03;5044930;28;20033;-63
2023/06/23 00:34:08;;;;;;;3.60;2.00;;;;;;;15.95;70.19;100521.31;5044721;28;20076;-63
2023/06/23 00:36:34;;;;;;;9.93;2.67;;;;;;;15.96;70.20;100522.16;5044810;28;20418;-61
2023/06/23 00:39:05;;;;;;;5.65;2.40;;;;;;;15.96;69.97;100530.00;5043506;28;20604;-63
2023/06/23 00:41:30;;;;;;;11.47;3.60;;;;;;;15.94;70.18;100526.59;5044657;28;20084;-61
2023/06/23 00:43:59;;;;;;;9.68;2.70;;;;;;;15.94;70.09;100529.22;5045001;28;20045;-62
2023/06/23 00:46:25;;;;;;;8.82;2.83;;;;;;;15.92;70.07;100533.63;5045217;28;20078;-62
2023/06/23 00:48:52;;;;;;;5.43;2.53;;;;;;;15.97;70.27;100530.00;5044961;28;20021;-62
2023/06/23 00:51:18;;;;;;;8.18;3.35;;;;;;;16.00;70.43;100531.69;5044760;28;20037;-62
2023/06/23 00:53:49;;;;;;;7.57;2.97;;;;;;;16.04;70.12;100535.09;5044621;28;20025;-62
2023/06/23 00:56:15;;;;;;;4.40;2.80;;;;;;;16.05;70.50;100528.94;5044900;28;20021;-62
2023/06/23 00:58:41;;;;;;;7.65;2.17;;;;;;;16.04;70.32;100540.31;5044895;28;20308;-63
2023/06/23 01:01:10;;;;;;;8.30;2.75;;;;;;;16.03;70.20;100534.22;5044802;28;20025;-62
2023/06/23 01:03:36;;;;;;;7.28;2.53;;;;;;;16.01;69.97;100530.78;5044704;28;20021;-63
2023/06/23 01:06:29;;;;;;;5.78;2.50;;;;;;;16.02;69.87;100537.75;5044308;28;20018;-62
2023/06/23 01:09:10;;;;;;;10.23;3.72;;;;;;;16.03;69.91;100536.84;5012599;28;20497;-62
2023/06/23 01:11:43;;;;;;;4.17;2.47;;;;;;;16.03;70.14;100534.22;5044913;28;20032;-62
2023/06/23 01:14:18;;;;;;;9.07;2.50;;;;;;;16.05;70.14;100540.28;5044612;28;20426;-62
2023/06/23 01:17:09;;;;;;;7.68;2.78;;;;;;;16.03;70.34;100539.44;5044530;28;20021;-61
2023/06/23 01:19:49;;;;;;;7.47;2.63;;;;;;;16.00;70.42;100541.28;5044843;28;20025;-63
2023/06/23 01:22:40;;;;;;;8.65;2.63;;;;;;;15.99;70.72;100548.28;5044446;28;20089;-63
2023/06/23 01:25:47;;;;;;;7.90;3.27;;;;;;;15.93;70.58;100538.81;5044358;28;20089;-62
2023/06/23 01:28:29;;;;;;;5.63;2.70;;;;;;;15.92;71.70;100541.47;4982663;28;20042;-62
2023/06/23 01:30:56;;;;;;;7.78;3.08;;;;;;;15.91;70.95;100550.25;4983276;28;20034;-62
2023/06/23 01:33:27;;;;;;;9.20;3.33;;;;;;;15.92;71.26;100541.47;4983206;28;20055;-62
2023/06/23 01:36:08;;;;;;;7.78;3.25;;;;;;;15.86;71.68;100540.75;4983089;28;20058;-62
2023/06/23 01:38:38;;;;;;;11.23;4.35;;;;;;;15.89;71.47;100539.81;4983446;28;20026;-62
2023/06/23 01:41:12;;;;;;;4.10;2.50;;;;;;;15.90;71.65;100548.50;4983196;28;20525;-63
2023/06/23 01:43:41;;;;;;;6.22;2.58;;;;;;;15.94;71.40;100550.16;4983328;28;20030;-62
2023/06/23 01:46:25;;;;;;;4.30;3.22;;;;;;;15.95;71.89;100546.63;4983306;28;20031;-62
2023/06/23 01:48:54;;;;;;;10.55;3.00;;;;;;;15.95;71.27;100541.38;4983241;28;20065;-63
2023/06/23 01:51:22;;;;;;;7.65;3.22;;;;;;;15.97;71.18;100547.44;4983023;28;20035;-63
2023/06/23 01:53:49;;;;;;;4.15;2.63;;;;;;;15.97;71.41;100550.06;4986087;28;20131;-62
2023/06/23 01:56:17;;;;;;;10.10;2.72;;;;;;;16.01;71.06;100554.34;4986521;28;20035;-62
2023/06/23 01:58:43;;;;;;;3.45;2.40;;;;;;;16.00;71.02;100555.25;5012330;28;20033;-63
2023/06/23 02:01:10;;;;;;;4.13;2.47;;;;;;;16.01;71.25;100556.97;5047635;28;20658;-63
2023/06/23 02:03:38;;;;;;;8.02;2.63;;;;;;;15.98;71.79;100557.91;5047923;28;20033;-63
2023/06/23 02:06:05;;;;;;;2.90;2.17;;;;;;;16.00;71.37;100555.25;5047348;28;20049;-63
2023/06/23 02:08:34;;;;;;;5.00;2.88;;;;;;;16.05;71.76;100558.59;5047830;28;20021;-62
2023/06/23 02:11:01;;;;;;;4.75;3.03;;;;;;;16.03;71.51;100547.31;5047533;28;20025;-63
2023/06/23 02:13:29;;;;;;;7.15;3.22;;;;;;;16.07;71.69;100551.53;5047292;28;20084;-61
2023/06/23 02:15:57;;;;;;;4.47;2.60;;;;;;;16.11;71.41;100549.69;5047540;28;20025;-63
2023/06/23 02:18:24;;;;;;;10.50;3.15;;;;;;;16.12;71.18;100553.19;5047488;28;20031;-62
2023/06/23 02:20:51;;;;;;;2.95;2.10;;;;;;;16.08;71.01;100542.78;5047460;28;20045;-62
2023/06/23 02:23:18;;;;;;;9.77;2.30;;;;;;;15.95;71.85;100523.06;5047473;28;20029;-62
2023/06/23 02:25:44;;;;;;;3.65;2.17;;;;;;;16.03;72.26;100547.31;5047333;28;20013;-62
2023/06/23 02:28:11;;;;;;;7.40;2.60;;;;;;;15.97;72.35;100530.00;5047130;28;20030;-62
2023/06/23 02:30:38;;;;;;;14.23;3.33;;;;;;;16.13;71.69;100540.03;5046891;28;20069;-61
2023/06/23 02:33:03;;;;;;;9.07;3.35;;;;;;;16.15;71.63;100532.13;5047023;28;20079;-62
2023/06/23 02:35:29;;;;;;;6.00;3.03;;;;;;;16.15;71.68;100532.97;5045609;28;20029;-63
2023/06/23 02:38:00;;;;;;;3.72;2.30;;;;;;;16.16;71.56;100534.72;5047120;28;20047;-62
2023/06/23 02:40:29;;;;;;;7.78;3.25;;;;;;;16.12;71.68;100534.84;5029136;28;20393;-62
2023/06/23 02:43:13;;;;;;;6.22;3.08;;;;;;;16.10;71.80;100533.13;5047161;28;20037;-63
2023/06/23 02:45:42;;;;;;;7.88;2.50;;;;;;;16.18;72.02;100547.75;5029039;28;20032;-63
2023/06/23 02:48:17;;;;;;;3.60;2.22;;;;;;;16.12;72.33;100533.06;5029141;28;20029;-63
2023/06/23 02:50:44;;;;;;;4.18;2.35;;;;;;;16.15;71.92;100524.28;5046941;28;20028;-61
2023/06/23 02:53:16;;;;;;;3.53;2.25;;;;;;;16.30;72.22;100549.13;5046768;28;20025;-62
2023/06/23 02:55:46;;;;;;;5.10;3.60;;;;;;;16.38;72.10;100562.00;5046738;28;20025;-62
2023/06/23 02:58:15;;;;;;;8.70;2.53;;;;;;;16.44;71.59;100565.31;5046824;28;20051;-62
2023/06/23 03:00:42;;;;;;;4.93;2.83;;;;;;;16.46;71.87;100553.03;5046731;28;20029;-62
2023/06/23 03:03:13;;;;;;;7.05;2.63;;;;;;;16.51;71.73;100552.88;5046372;28;20049;-63
2023/06/23 03:05:39;;;;;;;4.78;2.30;;;;;;;16.65;71.66;100562.06;5046840;28;20048;-61
2023/06/23 03:08:08;;;;;;;6.47;2.38;;;;;;;16.77;71.38;100572.19;5045252;28;20033;-62
2023/06/23 03:10:33;;;;;;;4.80;2.45;;;;;;;16.92;71.70;100567.31;5046326;28;20029;-62
2023/06/23 03:13:00;;;;;;;3.78;2.10;;;;;;;17.19;72.15;100572.59;5046384;28;20055;-63
2023/06/23 03:15:27;;;;;;;3.90;2.55;;;;;;;17.57;73.03;100573.03;5046247;28;20056;-63
2023/06/23 03:17:58;;;;;;;5.55;2.67;;;;;;;18.02;73.10;100557.44;5046374;28;20025;-63
2023/06/23 03:20:50;;;;;;;4.40;2.33;;;;;;;18.51;73.08;100556.53;5045286;28;20504;-62
2023/06/23 03:23:17;;;;;;;6.03;2.95;;;;;;;19.11;72.29;100549.75;5043349;28;20048;-62
2023/06/23 03:25:47;;;;;;;6.78;2.42;;;;;;;19.60;69.65;100569.63;5046020;28;20036;-62
2023/06/23 03:28:21;;;;;;;5.93;3.00;;;;;;;20.20;69.68;100557.34;5046177;28;20029;-62
2023/06/23 03:30:56;;;;;;;2.25;1.90;;;;;;;20.72;70.27;100558.41;5046170;28;20079;-62
2023/06/23 03:33:24;;;;;;;3.20;2.05;;;;;;;20.92;69.21;100548.69;5045807;28;20049;-62
2023/06/23 03:35:52;;;;;;;4.22;2.00;;;;;;;21.32;68.35;100550.22;5045883;28;20048;-62
2023/06/23 03:38:21;;;;;;;4.05;1.60;;;;;;;21.66;68.96;100559.06;5028170;28;20025;-63
2023/06/23 03:41:03;;;;;;;7.40;2.17;;;;;;;22.07;67.80;100547.22;5045805;28;20028;-62
2023/06/23 03:43:29;;;;;;;2.08;1.63;;;;;;;22.49;67.65;100547.53;5046034;28;20025;-62
2023/06/23 03:45:59;;;;;;;3.33;2.10;;;;;;;22.71;67.26;100545.47;5045924;28;20022;-62
2023/06/23 03:48:28;;;;;;;6.43;1.80;;;;;;;23.07;66.05;100540.78;5045888;28;20432;-63
2023/06/23 03:50:55;;;;;;;4.03;1.90;;;;;;;23.26;65.50;100536.09;5045626;28;20033;-63
2023/06/23 03:53:22;;;;;;;2.95;1.70;;;;;;;23.72;64.60;100531.56;5045838;28;20040;-62
2023/06/23 03:55:50;;;;;;;4.63;2.08;;;;;;;23.99;65.10;100533.44;5045479;28;20025;-62
2023/06/23 03:58:17;;;;;;;3.65;1.70;;;;;;;24.23;63.63;100534.69;5045725;28;20021;-61
2023/06/23 04:00:44;;;;;;;3.00;1.63;;;;;;;24.47;62.16;100526.91;5045430;28;20022;-62
2023/06/23 04:03:10;;;;;;;2.08;1.48;;;;;;;24.70;63.24;100537.81;5045515;28;20051;-61
2023/06/23 04:05:39;;;;;;;3.90;2.20;;;;;;;25.16;62.96;100533.03;5045569;28;20021;-62
2023/06/23 04:08:07;;;;;;;3.47;2.13;;;;;;;25.67;62.55;100533.16;5045452;28;20030;-62
2023/06/23 04:10:35;;;;;;;3.03;1.40;;;;;;;26.11;61.46;100531.78;5045527;28;20043;-62
2023/06/23 04:13:02;;;;;;;4.55;1.42;;;;;;;26.59;61.10;100534.59;5044559;28;20032;-62
2023/06/23 04:15:28;;;;;;;1.90;1.48;;;;;;;27.00;60.27;100540.44;5044768;28;20057;-64
2023/06/23 04:17:56;;;;;;;1.67;1.33;;;;;;;27.46;60.14;100557.34;5045382;28;20025;-63
2023/06/23 04:20:24;;;;;;;1.92;1.40;;;;;;;27.88;58.14;100555.06;5045474;28;20025;-63
2023/06/23 04:22:51;;;;;;;1.52;1.20;;;;;;;28.23;54.54;100545.22;5045234;28;20037;-62
2023/06/23 04:25:18;;;;;;;2.70;1.45;;;;;;;28.78;55.57;100553.16;5044660;28;20087;-63
2023/06/23 04:27:47;;;;;;;2.45;1.67;;;;;;;28.99;53.70;100551.50;5045128;28;20028;-62
2023/06/23 04:30:13;;;;;;;2.15;1.20;;;;;;;29.32;51.47;100563.81;5045194;28;20029;-63
2023/06/23 04:32:42;;;;;;;2.63;1.20;;;;;;;29.72;50.97;100556.00;5045064;28;20029;-62
2023/06/23 04:35:07;;;;;;;1.05;0.82;;;;;;;29.90;50.48;100558.88;5044887;28;20501;-62
2023/06/23 04:37:35;;;;;;;6.90;1.25;;;;;;;29.97;49.64;100556.47;5045082;28;20052;-67
2023/06/23 04:40:21;;;;;;;0.70;0.65;;;;;;;29.91;47.55;100565.06;5044965;28;20036;-63
2023/06/23 04:43:27;;;;;;;1.85;1.15;;;;;;;29.48;44.40;100559.81;5045102;28;20456;-63
2023/06/23 04:46:16;;;;;;;1.38;1.05;;;;;;;29.46;43.92;100564.44;5042950;28;20029;-64
2023/06/23 04:48:52;;;;;;;3.63;1.20;;;;;;;29.46;38.67;100574.28;5045050;28;20022;-61
2023/06/23 04:51:21;;;;;;;1.00;0.90;;;;;;;29.83;42.37;100568.41;5044908;28;20041;-64
2023/06/23 04:53:53;;;;;;;1.13;0.90;;;;;;;29.87;39.96;100575.22;5044987;28;20028;-63
2023/06/23 04:56:23;;;;;;;2.75;1.67;;;;;;;29.75;39.75;100581.63;5044824;28;20076;-66
2023/06/23 04:58:53;;;;;;;1.52;0.90;;;;;;;29.80;37.70;100580.25;5044962;28;20045;-68
2023/06/23 05:01:19;;;;;;;1.63;1.13;;;;;;;30.06;38.05;100579.75;5044795;28;20029;-66
2023/06/23 05:03:50;;;;;;;1.70;1.08;;;;;;;30.09;36.72;100584.00;5043765;28;20104;-66
2023/06/23 05:06:20;;;;;;;0.77;0.77;;;;;;;30.23;37.68;100588.13;5043568;28;20025;-67
2023/06/23 05:08:48;;;;;;;1.63;1.13;;;;;;;30.24;37.32;100591.66;5044760;28;20055;-59
2023/06/23 05:11:16;;;;;;;2.08;1.20;;;;;;;30.09;36.30;100589.34;5044418;28;20018;-62
2023/06/23 05:13:43;;;;;;;0.95;0.70;;;;;;;29.81;37.59;100595.31;5044658;28;20113;-60
2023/06/23 05:16:12;;;;;;;1.23;0.77;;;;;;;29.48;37.93;100589.22;5044317;28;20026;-62
2023/06/23 05:18:43;;;;;;;1.60;1.08;;;;;;;29.13;37.43;100587.75;5044616;28;20036;-63
2023/06/23 05:21:10;;;;;;;2.47;1.20;;;;;;;28.86;37.41;100587.25;5044568;28;20024;-63
2023/06/23 05:23:40;;;;;;;1.38;1.00;;;;;;;28.93;38.29;100582.25;5044803;28;20081;-63
2023/06/23 05:26:07;;;;;;;0.77;0.65;;;;;;;29.00;37.94;100583.44;5045103;28;20208;-63
2023/06/23 05:28:37;;;;;;;2.88;1.17;;;;;;;28.76;36.86;100572.94;5048516;28;20085;-62
2023/06/23 05:31:06;;;;;;;2.72;1.15;;;;;;;28.90;37.45;100577.16;5048484;28;20033;-63
2023/06/23 05:33:36;;;;;;;0.98;0.77;;;;;;;28.82;38.00;100586.66;5048177;28;20055;-62
2023/06/23 05:36:04;;;;;;;1.52;1.05;;;;;;;28.77;37.86;100596.03;5048294;28;20030;-63
2023/06/23 05:38:30;;;;;;;0.75;0.63;;;;;;;28.40;37.35;100597.25;5046986;28;20032;-64
2023/06/23 05:40:56;;;;;;;3.40;0.95;;;;;;;28.12;37.12;100600.28;5047907;28;20144;-64
2023/06/23 05:43:22;;;;;;;1.92;0.90;;;;;;;28.06;36.97;100587.44;5048313;28;20044;-65
2023/06/23 05:45:51;;;;;;;0.85;0.70;;;;;;;27.78;34.52;100606.47;5030507;28;20017;-65
2023/06/23 05:48:27;;;;;;;1.98;1.10;;;;;;;27.41;35.55;100606.69;5048398;28;20385;-65
2023/06/23 05:50:56;;;;;;;1.15;0.80;;;;;;;27.44;36.45;100611.78;5047115;28;20033;-64
2023/06/23 05:53:24;;;;;;;1.00;0.90;;;;;;;27.42;36.34;100609.22;5030331;28;20041;-65
2023/06/23 05:55:56;;;;;;;1.60;1.00;;;;;;;27.70;37.12;100607.09;5047869;28;20042;-65
2023/06/23 05:58:25;;;;;;;0.88;0.68;;;;;;;27.82;36.68;100607.97;5048140;28;20060;-65
2023/06/23 06:00:53;;;;;;;2.03;1.40;;;;;;;28.00;37.13;100612.81;5048183;28;20017;-65
2023/06/23 06:03:24;;;;;;;1.85;0.80;;;;;;;28.34;37.21;100619.94;5047964;28;20461;-65
2023/06/23 06:05:55;;;;;;;2.00;0.98;;;;;;;28.72;36.33;100616.94;5048139;28;20036;-65
2023/06/23 06:08:23;;;;;;;1.65;0.93;;;;;;;28.93;34.20;100612.47;5048001;28;20029;-65
2023/06/23 06:10:51;;;;;;;2.88;1.35;;;;;;;29.32;35.36;100609.25;5047852;28;20033;-65
2023/06/23 06:13:18;;;;;;;0.82;0.68;;;;;;;29.56;34.46;100612.63;5048089;28;20057;-64
2023/06/23 06:15:45;;;;;;;1.33;0.90;;;;;;;29.88;34.64;100603.66;5047877;28;20075;-64
2023/06/23 06:18:13;;;;;;;1.80;1.17;;;;;;;29.80;34.61;100611.50;5047649;28;20128;-64
2023/06/23 06:20:41;;;;;;;1.00;0.90;;;;;;;29.43;32.39;100610.16;5047694;28;20055;-64
2023/06/23 06:23:09;;;;;;;1.73;1.00;;;;;;;29.32;33.64;100598.56;5047704;28;20038;-64
2023/06/23 06:25:36;;;;;;;0.63;0.57;;;;;;;29.52;33.83;100597.81;5047483;28;20010;-64
2023/06/23 06:28:05;;;;;;;1.25;1.10;;;;;;;29.41;33.44;100593.41;5047653;28;20465;-65
2023/06/23 06:30:34;;;;;;;1.63;1.08;;;;;;;29.18;32.14;100591.72;5047655;28;20037;-65
2023/06/23 06:33:01;;;;;;;1.15;1.00;;;;;;;29.39;33.29;100598.91;5047468;28;20033;-65
2023/06/23 06:35:27;;;;;;;5.57;1.00;;;;;;;29.78;33.94;100603.59;5047247;28;20045;-64
2023/06/23 06:37:56;;;;;;;0.75;0.70;;;;;;;30.05;33.74;100604.81;5046665;28;20040;-65
2023/06/23 06:40:24;;;;;;;1.65;0.70;;;;;;;30.23;33.33;100601.53;5047175;28;20033;-64
2023/06/23 06:42:50;;;;;;;3.10;1.00;;;;;;;30.46;33.47;100606.63;5047328;28;20033;-64
2023/06/23 06:45:15;;;;;;;3.85;0.70;;;;;;;30.57;32.72;100599.44;5047122;28;20044;-64
2023/06/23 06:47:47;;;;;;;1.15;0.82;;;;;;;30.59;32.67;100601.03;5045644;28;20051;-64
2023/06/23 06:50:15;;;;;;;0.88;0.88;;;;;;;30.85;32.73;100599.66;5045797;28;20462;-64
2023/06/23 06:52:42;;;;;;;1.10;0.95;;;;;;;30.96;32.63;100591.44;5047292;28;20040;-64
2023/06/23 06:55:14;;;;;;;1.10;0.90;;;;;;;30.42;29.72;100590.00;5046838;28;20022;-65
2023/06/23 06:57:40;;;;;;;1.27;0.80;;;;;;;29.90;30.97;100603.50;5046866;28;20105;-63
2023/06/23 07:00:06;;;;;;;0.90;0.77;;;;;;;30.01;31.93;100607.91;5047188;28;20040;-64
2023/06/23 07:02:33;;;;;;;1.30;1.13;;;;;;;30.39;32.21;100605.50;5046903;28;20396;-64
2023/06/23 07:05:00;;;;;;;1.17;0.82;;;;;;;30.62;31.76;100594.53;5046835;28;20021;-64
2023/06/23 07:07:26;;;;;;;1.48;0.82;;;;;;;30.67;30.51;100593.09;5046706;28;20017;-64
2023/06/23 07:09:51;;;;;;;1.10;0.65;;;;;;;30.57;30.96;100592.28;5046646;28;20036;-64
2023/06/23 07:12:16;;;;;;;0.82;0.63;;;;;;;30.53;29.39;100588.16;5046948;28;20078;-64
2023/06/23 07:14:42;;;;;;;1.58;0.82;;;;;;;31.07;29.80;100587.78;5046568;28;20026;-64
2023/06/23 07:17:07;;;;;;;1.00;0.70;;;;;;;31.27;28.62;100590.41;5046578;28;20025;-65
2023/06/23 07:19:33;;;;;;;1.35;0.90;;;;;;;31.56;29.26;100589.50;5046732;28;20029;-65
2023/06/23 07:21:58;;;;;;;0.73;0.70;;;;;;;31.84;29.15;100600.25;5046617;28;20017;-65
2023/06/23 07:24:24;;;;;;;1.08;0.70;;;;;;;31.99;28.77;100597.09;5046284;28;20044;-65
2023/06/23 07:26:49;;;;;;;0.82;0.82;;;;;;;32.13;28.24;100596.59;5046499;28;20033;-64
2023/06/23 07:29:14;;;;;;;1.65;0.82;;;;;;;32.30;28.48;100594.09;5045083;28;20029;-65
2023/06/23 07:31:40;;;;;;;1.17;0.90;;;;;;;32.44;26.51;100608.00;5046265;28;20029;-65
2023/06/23 07:34:05;;;;;;;1.83;1.02;;;;;;;32.24;26.05;100603.59;5045945;28;20045;-65
2023/06/23 07:36:31;;;;;;;1.73;1.00;;;;;;;31.94;26.08;100610.09;5046081;28;20026;-65
2023/06/23 07:38:57;;;;;;;1.40;1.10;;;;;;;31.95;27.17;100611.81;5046301;28;20085;-65
2023/06/23 07:41:22;;;;;;;1.48;0.88;;;;;;;32.06;26.89;100603.56;5045843;28;20021;-64
2023/06/23 07:43:48;;;;;;;0.80;0.68;;;;;;;32.19;25.89;100608.56;5046189;28;20151;-65
2023/06/23 07:46:13;;;;;;;2.15;1.10;;;;;;;32.52;26.09;100616.16;5046190;28;20028;-65
2023/06/23 07:48:39;;;;;;;0.85;0.60;;;;;;;32.77;24.97;100611.00;5045917;28;20120;-64
2023/06/23 07:51:04;;;;;;;7.15;1.35;;;;;;;32.78;25.18;100607.34;5043808;28;20025;-65
2023/06/23 07:53:30;;;;;;;1.00;0.80;;;;;;;32.43;23.15;100619.75;5045854;28;20021;-64
2023/06/23 07:55:55;;;;;;;1.33;1.00;;;;;;;31.93;23.32;100613.78;5045747;28;20021;-64
2023/06/23 07:58:20;;;;;;;0.70;0.57;;;;;;;31.83;24.08;100614.66;5045689;28;20508;-65
2023/06/23 08:00:46;;;;;;;2.28;0.50;;;;;;;31.84;24.41;100610.97;5045762;28;20021;-64
2023/06/23 08:03:12;;;;;;;0.43;0.43;;;;;;;32.06;23.26;100608.09;5045618;28;20029;-65
2023/06/23 08:05:38;;;;;;;2.70;0.85;;;;;;;31.87;24.03;100605.31;5045488;28;20056;-64
2023/06/23 08:08:04;;;;;;;4.10;0.80;;;;;;;31.85;24.83;100591.22;5045541;28;20025;-64
2023/06/23 08:10:29;;;;;;;1.98;0.88;;;;;;;31.91;24.74;100595.13;5045349;28;20148;-65
2023/06/23 08:12:55;;;;;;;2.67;0.80;;;;;;;31.97;25.02;100596.41;5045637;28;20017;-65
2023/06/23 08:15:20;;;;;;;0.30;0.30;;;;;;;31.90;24.48;100604.19;5045238;28;20476;-65
2023/06/23 08:17:46;;;;;;;0.98;0.70;;;;;;;31.38;24.66;100587.56;5045526;28;20025;-65
2023/06/23 08:20:11;;;;;;;0.70;0.68;;;;;;;31.54;24.68;100599.53;5045800;28;20041;-65
2023/06/23 08:22:40;;;;;;;4.20;1.00;;;;;;;31.10;25.01;100602.72;5045381;28;20074;-65
2023/06/23 08:25:06;;;;;;;0.95;0.80;;;;;;;31.20;25.40;100595.47;5045309;28;20025;-65
2023/06/23 08:27:32;;;;;;;1.20;0.82;;;;;;;31.17;24.76;100593.09;5045331;28;20025;-64
2023/06/23 08:29:57;;;;;;;1.80;1.00;;;;;;;30.80;23.17;100595.53;5045036;28;20113;-64
2023/06/23 08:32:23;;;;;;;1.20;0.80;;;;;;;30.40;24.27;100608.03;5045269;28;20029;-65
2023/06/23 08:34:48;;;;;;;1.33;0.77;;;;;;;30.07;24.09;100612.72;5045154;28;20041;-64
2023/06/23 08:37:14;;;;;;;1.45;0.73;;;;;;;29.73;24.78;100610.34;5045078;28;20060;-64
2023/06/23 08:39:40;;;;;;;0.75;0.60;;;;;;;29.62;25.13;100612.13;5045037;28;20029;-65
2023/06/23 08:42:06;;;;;;;0.93;0.82;;;;;;;29.56;25.53;100607.28;5045195;28;20032;-64
2023/06/23 08:44:35;;;;;;;1.00;0.80;;;;;;;29.68;25.89;100616.94;5045185;28;20080;-64
2023/06/23 08:47:04;;;;;;;1.35;0.90;;;;;;;30.11;25.98;100615.97;5045086;28;20405;-64
2023/06/23 08:49:34;;;;;;;7.68;0.80;;;;;;;30.62;25.92;100621.31;5045168;28;20029;-64
2023/06/23 08:52:01;;;;;;;0.63;0.57;;;;;;;30.91;24.97;100618.66;5045015;28;20032;-64
2023/06/23 08:54:27;;;;;;;1.02;0.93;;;;;;;31.45;24.65;100627.22;5044879;28;20065;-63
2023/06/23 08:56:53;;;;;;;3.15;0.70;;;;;;;31.79;24.20;100632.91;5045148;28;20029;-65
2023/06/23 08:59:18;;;;;;;0.60;0.55;;;;;;;31.34;23.58;100629.06;5045122;28;20025;-65
2023/06/23 09:01:43;;;;;;;1.05;0.85;;;;;;;30.73;23.49;100641.75;5046732;28;20037;-64
2023/06/23 09:04:09;;;;;;;1.55;0.68;;;;;;;29.87;24.06;100644.78;5049156;28;20028;-64
2023/06/23 09:06:35;;;;;;;0.57;0.57;;;;;;;29.50;25.14;100642.56;5048936;28;20021;-65
2023/06/23 09:09:00;;;;;;;1.05;0.75;;;;;;;30.01;25.24;100640.03;5048942;28;20079;-64
2023/06/23 09:11:27;;;;;;;1.55;1.00;;;;;;;30.55;24.69;100650.47;5048869;28;20025;-64
2023/06/23 09:13:55;;;;;;;1.27;0.90;;;;;;;30.56;24.22;100644.16;5048874;28;20021;-64
2023/06/23 09:16:21;;;;;;;1.30;1.00;;;;;;;30.27;23.97;100648.44;5030829;28;20041;-64
2023/06/23 09:18:47;;;;;;;1.33;0.73;;;;;;;29.95;24.25;100654.81;5049086;28;20030;-64
2023/06/23 09:21:13;;;;;;;2.28;0.80;;;;;;;29.62;25.00;100657.59;5048749;28;20029;-64
2023/06/23 09:23:38;;;;;;;0.70;0.60;;;;;;;29.52;25.24;100654.81;5048625;28;20048;-64
2023/06/23 09:26:06;;;;;;;1.15;0.90;;;;;;;29.24;25.54;100653.66;5048234;28;20053;-64
2023/06/23 09:28:38;;;;;;;0.65;0.60;;;;;;;28.91;25.16;100643.81;5048674;28;20033;-65
2023/06/23 09:31:07;;;;;;;1.40;0.75;;;;;;;28.31;25.02;100644.16;5048622;28;20021;-64
2023/06/23 09:33:32;;;;;;;1.50;1.00;;;;;;;27.63;25.74;100645.84;5048475;28;20033;-65
2023/06/23 09:36:03;;;;;;;1.95;1.17;;;;;;;27.22;26.17;100651.56;5048436;28;20025;-65
2023/06/23 09:38:35;;;;;;;0.85;0.75;;;;;;;27.14;26.99;100643.28;5047948;28;20021;-63
2023/06/23 09:41:14;;;;;;;1.58;1.10;;;;;;;27.21;27.14;100649.00;5048239;28;20125;-63
2023/06/23 09:43:53;;;;;;;1.67;0.73;;;;;;;27.17;27.34;100651.09;5048487;28;20069;-64
2023/06/23 09:46:22;;;;;;;1.67;0.77;;;;;;;27.36;27.54;100657.69;5048470;28;20026;-64
2023/06/23 09:48:49;;;;;;;1.55;1.00;;;;;;;27.88;27.53;100651.97;5048161;28;20021;-64
2023/06/23 09:51:18;;;;;;;2.30;0.93;;;;;;;28.35;27.12;100664.38;5048319;28;20021;-64
2023/06/23 09:53:44;;;;;;;1.15;0.70;;;;;;;28.48;26.86;100664.22;5048268;28;20021;-64
2023/06/23 09:56:18;;;;;;;1.35;0.80;;;;;;;28.29;27.36;100664.81;5046542;28;20033;-64
2023/06/23 09:58:44;;;;;;;1.00;0.90;;;;;;;28.86;27.72;100662.06;5048099;28;20139;-63
2023/06/23 10:01:12;;;;;;;1.05;0.90;;;;;;;29.55;27.25;100659.06;5048134;28;20041;-64
2023/06/23 10:03:57;;;;;;;0.93;0.55;;;;;;;29.79;27.27;100666.81;5048150;28;20025;-64
2023/06/23 10:06:25;;;;;;;1.13;0.80;;;;;;;29.97;26.34;100665.38;5047959;28;20022;-64
2023/06/23 10:08:57;;;;;;;1.23;0.85;;;;;;;29.78;26.39;100673.16;5047904;28;20053;-64
2023/06/23 10:11:33;;;;;;;0.55;0.55;;;;;;;30.10;25.58;100676.69;5047639;28;20288;-64
2023/06/23 10:14:02;;;;;;;0.90;0.73;;;;;;;30.35;25.81;100671.03;5046631;28;20025;-64
2023/06/23 10:16:28;;;;;;;0.65;0.50;;;;;;;30.05;25.51;100668.19;5046208;28;20032;-64
2023/06/23 10:18:54;;;;;;;0.80;0.70;;;;;;;29.77;25.59;100675.97;5047454;28;20025;-62
2023/06/23 10:21:20;;;;;;;1.98;0.88;;;;;;;29.16;26.37;100673.00;5047608;28;20197;-63
2023/06/23 10:23:48;;;;;;;1.42;0.77;;;;;;;28.75;26.87;100665.63;5047409;28;20029;-63
2023/06/23 10:26:15;;;;;;;1.05;0.70;;;;;;;28.90;26.28;100668.00;5047082;28;20104;-64
2023/06/23 10:28:45;;;;;;;1.55;0.90;;;;;;;28.84;26.51;100658.66;5047490;28;20036;-64
2023/06/23 10:31:11;;;;;;;1.05;0.70;;;;;;;28.60;26.91;100657.03;5047357;28;20033;-63
2023/06/23 10:33:40;;;;;;;1.45;1.25;;;;;;;28.51;27.13;100668.44;5047085;28;20053;-64
2023/06/23 10:36:08;;;;;;;0.85;0.60;;;;;;;28.24;27.31;100656.31;5047212;28;20068;-64
2023/06/23 10:38:38;;;;;;;0.70;0.43;;;;;;;27.68;27.89;100681.06;5047311;28;20048;-64
2023/06/23 10:41:05;;;;;;;0.70;0.70;;;;;;;27.62;28.05;100669.97;5047138;28;20085;-64
2023/06/23 10:43:33;;;;;;;0.77;0.57;;;;;;;27.59;28.09;100676.38;5047289;28;20032;-64
2023/06/23 10:46:00;;;;;;;0.80;0.60;;;;;;;27.99;27.63;100675.13;5046942;28;20033;-64
2023/06/23 10:48:26;;;;;;;1.00;0.70;;;;;;;28.12;27.24;100677.69;5047223;28;20029;-64
2023/06/23 10:50:53;;;;;;;0.50;0.50;;;;;;;27.75;27.25;100667.25;5047050;28;20420;-64
2023/06/23 10:53:24;;;;;;;1.08;0.80;;;;;;;27.95;27.98;100673.69;5046927;28;20044;-64
2023/06/23 10:55:58;;;;;;;0.75;0.57;;;;;;;28.35;27.23;100675.03;5046750;28;20037;-64
2023/06/23 10:58:24;;;;;;;0.95;0.68;;;;;;;28.52;27.25;100687.03;5046937;28;20029;-64
2023/06/23 11:00:52;;;;;;;1.55;0.85;;;;;;;28.70;27.14;100681.16;5046829;28;20021;-64
2023/06/23 11:03:27;;;;;;;1.90;1.00;;;;;;;28.27;26.67;100694.31;5046547;28;20068;-64
2023/06/23 11:05:57;;;;;;;0.65;0.60;;;;;;;27.82;27.29;100687.13;5046792;28;20393;-64
2023/06/23 11:08:35;;;;;;;1.20;0.68;;;;;;;27.25;27.93;100686.94;5046890;28;20085;-65
2023/06/23 11:11:09;;;;;;;0.75;0.60;;;;;;;26.76;28.81;100692.25;5046402;28;20036;-63
2023/06/23 11:13:45;;;;;;;1.38;1.00;;;;;;;26.38;28.58;100694.91;5046701;28;20071;-64
2023/06/23 11:16:16;;;;;;;1.98;0.70;;;;;;;26.16;29.13;100690.22;5046539;28;20037;-64
2023/06/23 11:18:57;;;;;;;1.45;0.80;;;;;;;25.97;29.55;100703.00;5046422;28;20067;-64
2023/06/23 11:21:25;;;;;;;0.77;0.60;;;;;;;25.81;29.82;100705.88;5046620;28;20034;-64
2023/06/23 11:24:07;;;;;;;1.27;0.77;;;;;;;25.70;30.66;100711.91;5046107;28;20045;-63
2023/06/23 11:26:32;;;;;;;;;;;;;;;25.72;30.63;100704.69;5046828;28;20079;-64
2023/06/23 11:28:59;;;;;;;3.38;1.00;;;;;;;25.48;30.88;100697.38;5046392;28;19928;-63
2023/06/23 11:31:27;;;;;;;1.70;1.00;;;;;;;25.34;30.61;100697.47;5046462;28;20022;-64